Lanai City, Hawaii
Current Conditions -  °F | °C
As of 4:56 AM on Thursday 23 Oct 2014 (Local Time) from PHNY Reporting Station
Clear Clear  
Wind Chill: 70°   Ceiling: Unl
Heat Index: 70°   Visibility: 10mi
Dew Point: 70°   Wind: 6mph
Humidity: 100%   Direction: 70°ENE
Pressure: 30.04"   Gusts: NA
Location:  20.82°N, 156.91°W
Report Text: PHNY 231456Z AUTO 07005KT 10SM CLR 21/21 A3004 RMK AO2 TSNO 55005 T02110211 SLP153 $
Loading
Personal Weather Stations






























Interactive Weather Map
Tropical Storm Tracking
New forecast layout! Learn more

10-Day Weather Forecast

Advertisements
Track Severe Weather on mobile